createdAt,value
2019-04-23T00:03:52.062Z,15.74
2019-04-23T00:06:50.271Z,15.73
2019-04-23T00:09:09.241Z,15.69
2019-04-23T00:11:32.429Z,15.68
2019-04-23T00:14:10.002Z,15.64
2019-04-23T00:16:45.970Z,15.58
2019-04-23T00:19:20.344Z,15.54
2019-04-23T00:22:03.101Z,15.49
2019-04-23T00:25:34.726Z,15.48
2019-04-23T00:27:40.511Z,15.41
2019-04-23T00:30:00.940Z,15.39
2019-04-23T00:35:25.817Z,15.36
2019-04-23T00:37:42.272Z,15.34
2019-04-23T00:40:13.260Z,15.28
2019-04-23T00:42:47.779Z,15.25
2019-04-23T00:45:27.229Z,15.26
2019-04-23T00:47:49.897Z,15.26
2019-04-23T00:50:35.845Z,15.25
2019-04-23T00:53:01.528Z,15.22
2019-04-23T00:55:28.173Z,15.17
2019-04-23T00:58:08.183Z,15.09
2019-04-23T01:05:41.080Z,15.00
2019-04-23T01:08:18.578Z,14.99
2019-04-23T01:10:59.821Z,14.99
2019-04-23T01:15:59.672Z,15.00
2019-04-23T01:20:54.264Z,14.97
2019-04-23T01:23:40.441Z,14.91
2019-04-23T01:26:23.863Z,14.89
2019-04-23T01:29:03.056Z,14.85
2019-04-23T01:31:33.285Z,14.86
2019-04-23T01:34:13.058Z,14.86
2019-04-23T01:36:48.676Z,14.85
2019-04-23T01:39:14.257Z,14.79
2019-04-23T01:41:53.761Z,14.74
2019-04-23T01:44:27.841Z,14.73
2019-04-23T01:46:54.652Z,14.69
2019-04-23T01:49:30.631Z,14.62
2019-04-23T01:52:00.330Z,14.55
2019-04-23T01:54:33.617Z,14.44
2019-04-23T01:57:01.223Z,14.37
2019-04-23T01:59:31.637Z,14.37
2019-04-23T02:02:06.579Z,14.37
2019-04-23T02:04:34.934Z,14.35
2019-04-23T02:07:15.920Z,14.37
2019-04-23T02:09:48.376Z,14.39
2019-04-23T02:12:18.161Z,14.38
2019-04-23T02:14:49.933Z,14.38
2019-04-23T02:17:24.741Z,14.25
2019-04-23T02:20:01.343Z,14.25
2019-04-23T02:22:38.957Z,14.16
2019-04-23T02:25:31.683Z,14.12
2019-04-23T02:28:04.760Z,14.10
2019-04-23T02:35:51.867Z,14.10
2019-04-23T02:40:54.981Z,14.03
2019-04-23T02:43:22.721Z,14.03
2019-04-23T02:48:24.079Z,14.07
2019-04-23T02:50:54.035Z,14.08
2019-04-23T02:53:42.320Z,14.04
2019-04-23T02:56:24.073Z,14.03
2019-04-23T02:58:36.795Z,14.02
2019-04-23T03:03:42.252Z,13.95
2019-04-23T03:08:54.850Z,13.84
2019-04-23T03:13:54.045Z,13.88
2019-04-23T03:19:21.810Z,13.85
2019-04-23T03:21:56.171Z,13.79
2019-04-23T03:27:29.177Z,13.73
2019-04-23T03:30:06.195Z,13.73
2019-04-23T03:32:45.781Z,13.70
2019-04-23T03:37:39.642Z,13.65
2019-04-23T03:42:43.063Z,13.62
2019-04-23T03:47:42.817Z,13.54
2019-04-23T03:50:26.204Z,13.53
2019-04-23T03:55:28.051Z,13.47
2019-04-23T03:57:52.610Z,13.48
2019-04-23T04:00:32.584Z,13.50
2019-04-23T04:05:42.088Z,13.48
2019-04-23T04:10:46.499Z,13.39
2019-04-23T04:13:06.731Z,13.35
2019-04-23T04:18:30.977Z,13.33
2019-04-23T04:28:48.522Z,13.32
2019-04-23T04:31:10.029Z,13.27
2019-04-23T04:43:53.636Z,13.15
2019-04-23T04:46:30.556Z,13.14
2019-04-23T04:48:54.884Z,13.14
2019-04-23T04:51:31.567Z,13.14
2019-04-23T04:54:02.960Z,13.14
2019-04-23T04:56:30.305Z,13.13
2019-04-23T04:59:05.584Z,13.12
2019-04-23T05:01:48.317Z,13.06
2019-04-23T05:04:00.049Z,13.03
2019-04-23T05:09:17.115Z,13.10
2019-04-23T05:11:46.140Z,13.06
2019-04-23T05:14:06.675Z,13.09
2019-04-23T05:16:43.230Z,13.01
2019-04-23T05:24:31.835Z,13.02
2019-04-23T05:26:55.432Z,12.99
2019-04-23T05:29:19.960Z,13.01
2019-04-23T05:31:58.200Z,13.01
2019-04-23T05:34:28.915Z,13.06
2019-04-23T05:37:00.196Z,13.13
2019-04-23T05:39:39.847Z,13.18
2019-04-23T05:42:07.176Z,13.15
2019-04-23T05:44:43.317Z,13.16
2019-04-23T05:47:16.013Z,13.20
2019-04-23T05:49:46.002Z,13.25
2019-04-23T05:52:27.764Z,13.27
2019-04-23T05:55:01.818Z,13.29
2019-04-23T05:57:20.692Z,13.27
2019-04-23T05:59:54.765Z,13.30
2019-04-23T06:02:33.671Z,13.34
2019-04-23T06:05:04.171Z,13.36
2019-04-23T06:07:39.312Z,13.35
2019-04-23T06:12:42.299Z,13.43
2019-04-23T06:15:12.306Z,13.45
2019-04-23T06:17:46.271Z,13.48
2019-04-23T06:20:24.999Z,13.52
2019-04-23T06:22:49.640Z,13.54
2019-04-23T06:25:39.944Z,13.58
2019-04-23T06:27:57.582Z,13.55
2019-04-23T06:30:34.316Z,13.55
2019-04-23T06:33:00.896Z,13.60
2019-04-23T06:35:28.634Z,13.63
2019-04-23T06:38:29.964Z,13.68
2019-04-23T06:40:33.650Z,13.70
2019-04-23T06:43:19.908Z,13.74
2019-04-23T06:45:49.381Z,13.78
2019-04-23T06:53:27.170Z,13.78
2019-04-23T06:56:04.038Z,13.81
2019-04-23T07:01:06.675Z,13.84
2019-04-23T07:03:46.797Z,13.80
2019-04-23T07:06:23.658Z,13.79
2019-04-23T07:13:58.817Z,13.81
2019-04-23T07:16:21.546Z,13.88
2019-04-23T07:19:19.924Z,13.96
2019-04-23T07:21:27.947Z,13.94
2019-04-23T07:24:05.177Z,13.94
2019-04-23T07:26:42.211Z,13.93
2019-04-23T07:29:07.457Z,13.99
2019-04-23T07:34:15.755Z,14.02
2019-04-23T07:36:50.819Z,14.11
2019-04-23T07:39:27.298Z,14.17
2019-04-23T07:42:34.442Z,14.19
2019-04-23T07:48:03.861Z,14.30
2019-04-23T07:55:34.580Z,14.42
2019-04-23T07:58:10.569Z,14.48
2019-04-23T08:00:41.514Z,14.51
2019-04-23T08:05:39.028Z,14.55
2019-04-23T08:08:24.538Z,14.60
2019-04-23T08:11:12.473Z,14.65
2019-04-23T08:13:21.576Z,14.67
2019-04-23T08:15:57.406Z,14.65
2019-04-23T08:18:32.657Z,14.71
2019-04-23T08:20:55.728Z,14.74
2019-04-23T08:26:59.065Z,14.77
2019-04-23T08:29:28.037Z,14.82
2019-04-23T08:32:12.454Z,14.86
2019-04-23T08:37:18.575Z,14.93
2019-04-23T08:39:43.465Z,14.96
2019-04-23T08:45:16.743Z,14.91
2019-04-23T08:48:07.569Z,14.98
2019-04-23T08:53:26.404Z,15.09
2019-04-23T08:55:46.373Z,15.15
2019-04-23T08:58:23.629Z,15.18
2019-04-23T09:00:51.994Z,15.26
2019-04-23T09:03:36.165Z,15.31
2019-04-23T09:06:00.109Z,15.38
2019-04-23T09:11:04.434Z,15.55
2019-04-23T09:16:05.189Z,15.73
2019-04-23T09:18:32.631Z,15.76
2019-04-23T09:23:46.654Z,15.88
2019-04-23T09:26:06.366Z,15.89
2019-04-23T09:31:45.771Z,15.99
2019-04-23T09:34:09.621Z,16.04
2019-04-23T09:37:00.047Z,16.15
2019-04-23T09:39:49.553Z,16.21
2019-04-23T09:45:38.571Z,16.32
2019-04-23T09:48:02.401Z,16.34
2019-04-23T09:50:41.446Z,16.37
2019-04-23T09:53:20.557Z,16.38
2019-04-23T09:58:12.195Z,16.50
2019-04-23T10:00:46.767Z,16.58
2019-04-23T10:03:16.666Z,16.62
2019-04-23T10:05:42.241Z,16.70
2019-04-23T10:08:13.807Z,16.72
2019-04-23T10:10:36.527Z,16.74
2019-04-23T10:13:08.332Z,16.71
2019-04-23T10:15:46.736Z,16.80
2019-04-23T10:18:16.166Z,16.83
2019-04-23T10:20:46.902Z,16.87
2019-04-23T10:23:18.942Z,16.93
2019-04-23T10:25:52.289Z,17.02
2019-04-23T10:28:29.667Z,17.08
2019-04-23T10:31:00.740Z,17.12
2019-04-23T10:33:31.871Z,17.15
2019-04-23T10:36:08.922Z,17.17
2019-04-23T10:38:36.380Z,17.22
2019-04-23T10:41:07.118Z,17.21
2019-04-23T10:43:40.031Z,17.22
2019-04-23T10:46:53.700Z,17.26
2019-04-23T10:57:17.300Z,17.37
2019-04-23T11:00:00.040Z,17.38
2019-04-23T11:04:59.634Z,17.43
2019-04-23T11:10:05.589Z,17.58
2019-04-23T11:15:40.256Z,17.72
2019-04-23T11:17:59.286Z,17.82
2019-04-23T11:20:30.004Z,17.88
2019-04-23T11:22:50.877Z,17.91
2019-04-23T11:28:11.526Z,17.96
2019-04-23T11:30:36.490Z,17.95
2019-04-23T11:33:25.636Z,17.99
2019-04-23T11:35:49.946Z,18.05
2019-04-23T11:40:43.624Z,18.21
2019-04-23T11:43:20.299Z,18.27
2019-04-23T11:51:32.469Z,18.52
2019-04-23T11:53:35.570Z,18.67
2019-04-23T11:56:02.630Z,18.70
2019-04-23T11:58:37.579Z,18.76
2019-04-23T12:01:49.243Z,18.79
2019-04-23T12:04:24.885Z,18.78
2019-04-23T12:07:04.739Z,18.79
2019-04-23T12:09:43.024Z,18.79
2019-04-23T12:12:11.258Z,18.88
2019-04-23T12:17:31.687Z,18.80
2019-04-23T12:30:03.680Z,19.11
2019-04-23T12:35:16.210Z,19.29
2019-04-23T12:38:08.902Z,19.43
2019-04-23T12:40:44.332Z,19.48
2019-04-23T12:43:18.137Z,19.50
2019-04-23T12:53:30.383Z,19.47
2019-04-23T12:56:07.059Z,19.52
2019-04-23T13:01:05.600Z,19.49
2019-04-23T13:03:33.065Z,19.52
2019-04-23T13:05:59.315Z,19.56
2019-04-23T13:08:46.570Z,19.57
2019-04-23T13:11:15.322Z,19.61
2019-04-23T13:13:51.978Z,19.60
2019-04-23T13:16:25.448Z,19.61
2019-04-23T13:18:49.752Z,19.64
2019-04-23T13:21:45.225Z,19.69
2019-04-23T13:24:05.107Z,19.75
2019-04-23T13:26:33.416Z,19.74
2019-04-23T13:29:13.874Z,19.77
2019-04-23T13:31:36.316Z,19.75
2019-04-23T13:34:16.292Z,19.66
2019-04-23T13:36:45.367Z,19.57
2019-04-23T13:39:18.665Z,19.51
2019-04-23T13:41:46.036Z,19.51
2019-04-23T13:44:29.334Z,19.49
2019-04-23T13:47:00.824Z,19.47
2019-04-23T13:49:31.657Z,19.42
2019-04-23T13:52:06.179Z,19.44
2019-04-23T13:54:58.513Z,19.45
2019-04-23T13:59:44.574Z,19.34
2019-04-23T14:02:24.846Z,19.34
2019-04-23T14:05:04.932Z,19.33
2019-04-23T14:10:16.990Z,19.32
2019-04-23T14:13:03.391Z,19.38
2019-04-23T14:18:11.046Z,19.34
2019-04-23T14:20:30.270Z,19.38
2019-04-23T14:25:31.455Z,19.50
2019-04-23T14:28:13.930Z,19.58
2019-04-23T14:40:56.390Z,19.59
2019-04-23T14:43:40.191Z,19.56
2019-04-23T14:46:34.378Z,19.53
2019-04-23T14:51:32.250Z,19.61
2019-04-23T14:53:53.701Z,19.62
2019-04-23T14:56:27.812Z,19.63
2019-04-23T15:01:36.172Z,19.65
2019-04-23T15:04:05.647Z,19.64
2019-04-23T15:06:43.673Z,19.66
2019-04-23T15:09:22.937Z,19.65
2019-04-23T15:11:57.687Z,19.64
2019-04-23T15:14:19.415Z,19.59
2019-04-23T15:16:54.886Z,19.62
2019-04-23T15:19:36.794Z,19.61
2019-04-23T15:22:12.511Z,19.62
2019-04-23T15:24:43.870Z,19.64
2019-04-23T15:28:00.127Z,19.64
2019-04-23T15:29:36.178Z,19.63
2019-04-23T15:32:38.126Z,19.63
2019-04-23T15:34:48.993Z,19.68
2019-04-23T15:42:44.406Z,19.73
2019-04-23T15:45:04.492Z,19.67
2019-04-23T15:47:36.081Z,19.63
2019-04-23T15:50:10.055Z,19.64
2019-04-23T15:55:20.831Z,19.65
2019-04-23T15:58:05.708Z,19.66
2019-04-23T16:00:12.994Z,19.67
2019-04-23T16:02:19.851Z,19.62
2019-04-23T16:04:51.205Z,19.62
2019-04-23T16:07:41.302Z,19.64
2019-04-23T16:10:22.251Z,19.57
2019-04-23T16:12:58.391Z,19.62
2019-04-23T16:15:31.934Z,19.64
2019-04-23T16:18:29.856Z,19.66
2019-04-23T16:21:04.939Z,19.65
2019-04-23T16:23:31.248Z,19.68
2019-04-23T16:26:23.119Z,19.68
2019-04-23T16:29:08.250Z,19.67
2019-04-23T16:31:26.441Z,19.65
2019-04-23T16:36:32.905Z,19.66
2019-04-23T16:39:07.564Z,19.67
2019-04-23T16:41:39.885Z,19.69
2019-04-23T16:46:50.199Z,19.72
2019-04-23T16:49:23.305Z,19.72
2019-04-23T16:52:02.073Z,19.66
2019-04-23T16:54:36.875Z,19.66
2019-04-23T16:59:35.255Z,19.67
2019-04-23T17:02:07.829Z,19.65
2019-04-23T17:04:30.321Z,19.67
2019-04-23T17:07:02.455Z,19.68
2019-04-23T17:09:42.432Z,19.66
2019-04-23T17:12:13.736Z,19.64
2019-04-23T17:14:48.198Z,19.65
2019-04-23T17:17:13.257Z,19.66
2019-04-23T17:19:53.019Z,19.63
2019-04-23T17:22:38.440Z,19.57
2019-04-23T17:25:07.374Z,19.50
2019-04-23T17:27:29.774Z,19.41
2019-04-23T17:30:09.673Z,19.40
2019-04-23T17:32:55.888Z,19.38
2019-04-23T17:35:24.469Z,19.30
2019-04-23T17:38:00.511Z,19.22
2019-04-23T17:40:30.623Z,19.19
2019-04-23T17:43:05.938Z,19.09
2019-04-23T17:45:35.797Z,19.06
2019-04-23T17:50:56.609Z,18.95
2019-04-23T17:53:30.114Z,18.84
2019-04-23T17:58:34.213Z,18.70
2019-04-23T18:01:27.887Z,18.64
2019-04-23T18:04:04.056Z,18.62
2019-04-23T18:06:37.272Z,18.52
2019-04-23T18:09:14.346Z,18.47
2019-04-23T18:11:53.979Z,18.42
2019-04-23T18:14:08.359Z,18.35
2019-04-23T18:19:22.824Z,18.16
2019-04-23T18:22:19.030Z,18.16
2019-04-23T18:25:04.162Z,18.01
2019-04-23T18:27:38.631Z,17.94
2019-04-23T18:35:46.060Z,17.81
2019-04-23T18:38:29.174Z,17.73
2019-04-23T18:45:59.214Z,17.51
2019-04-23T18:48:43.863Z,17.37
2019-04-23T18:53:43.748Z,17.26
2019-04-23T18:56:12.472Z,17.21
2019-04-23T19:06:45.229Z,17.06
2019-04-23T19:10:13.668Z,17.03
2019-04-23T19:12:42.766Z,17.02
2019-04-23T19:15:24.728Z,17.01
2019-04-23T19:17:56.487Z,16.96
2019-04-23T19:20:39.763Z,16.94
2019-04-23T19:22:58.540Z,16.84
2019-04-23T19:28:30.328Z,16.87
2019-04-23T19:30:46.199Z,16.89
2019-04-23T19:33:29.536Z,16.81
2019-04-23T19:36:09.079Z,16.75
2019-04-23T19:38:26.745Z,16.70
2019-04-23T19:40:58.244Z,16.67
2019-04-23T19:43:33.724Z,16.58
2019-04-23T19:48:44.603Z,16.68
2019-04-23T19:51:08.742Z,16.68
2019-04-23T19:53:54.876Z,16.69
2019-04-23T19:58:56.766Z,16.69
2019-04-23T20:01:23.881Z,16.63
2019-04-23T20:03:56.209Z,16.64
2019-04-23T20:11:34.576Z,16.57
2019-04-23T20:16:48.872Z,16.56
2019-04-23T20:19:18.773Z,16.54
2019-04-23T20:22:05.945Z,16.54
2019-04-23T20:24:52.616Z,16.49
2019-04-23T20:27:09.269Z,16.50
2019-04-23T20:33:12.615Z,16.42
2019-04-23T20:37:48.944Z,16.35
2019-04-23T20:42:27.476Z,16.33
2019-04-23T20:44:58.839Z,16.35
2019-04-23T20:47:33.494Z,16.33
2019-04-23T20:49:51.829Z,16.33
2019-04-23T20:52:37.578Z,16.34
2019-04-23T20:55:08.095Z,16.29
2019-04-23T20:57:55.588Z,16.23
2019-04-23T21:00:36.793Z,16.19
2019-04-23T21:05:27.905Z,16.11
2019-04-23T21:08:44.230Z,16.11
2019-04-23T21:10:40.500Z,16.15
2019-04-23T21:13:27.766Z,16.15
2019-04-23T21:15:54.602Z,16.10
2019-04-23T21:18:25.684Z,16.09
2019-04-23T21:20:50.998Z,16.01
2019-04-23T21:23:32.207Z,15.86
2019-04-23T21:25:52.416Z,15.84
2019-04-23T21:31:25.347Z,15.79
2019-04-23T21:34:04.237Z,15.80
2019-04-23T21:36:38.518Z,15.76
2019-04-23T21:39:29.310Z,15.70
2019-04-23T21:42:14.813Z,15.52
2019-04-23T21:44:28.880Z,15.54
2019-04-23T21:47:04.201Z,15.53
2019-04-23T21:49:47.079Z,15.45
2019-04-23T21:54:47.233Z,15.27
2019-04-23T21:57:18.022Z,15.25
2019-04-23T21:59:50.458Z,15.17
2019-04-23T22:02:21.948Z,15.16
2019-04-23T22:05:04.222Z,15.05
2019-04-23T22:07:40.754Z,15.04
2019-04-23T22:10:02.561Z,15.01
2019-04-23T22:12:42.761Z,15.00
2019-04-23T22:15:07.232Z,14.92
2019-04-23T22:17:39.308Z,14.68
2019-04-23T22:20:21.415Z,14.73
2019-04-23T22:22:59.921Z,14.66
2019-04-23T22:25:13.461Z,14.54
2019-04-23T22:27:54.459Z,14.49
2019-04-23T22:30:21.381Z,14.51
2019-04-23T22:33:11.254Z,14.40
2019-04-23T22:35:24.916Z,14.34
2019-04-23T22:38:08.551Z,14.32
2019-04-23T22:40:25.707Z,14.37
2019-04-23T22:43:14.942Z,14.31
2019-04-23T22:45:47.982Z,14.23
2019-04-23T22:48:11.626Z,14.22
2019-04-23T22:53:09.219Z,14.17
2019-04-23T22:58:19.479Z,13.99
2019-04-23T23:01:23.740Z,13.95
2019-04-23T23:03:52.490Z,13.88
2019-04-23T23:06:36.789Z,13.79
2019-04-23T23:09:25.716Z,13.79
2019-04-23T23:11:30.309Z,13.80
2019-04-23T23:16:31.745Z,13.67
2019-04-23T23:19:14.873Z,13.61
2019-04-23T23:21:49.822Z,13.48
2019-04-23T23:24:07.465Z,13.45
2019-04-23T23:26:49.545Z,13.51
2019-04-23T23:29:13.567Z,13.32
2019-04-23T23:31:54.203Z,13.38
2019-04-23T23:37:03.201Z,13.32
2019-04-23T23:41:56.446Z,13.16
2019-04-23T23:47:07.305Z,13.17
2019-04-23T23:49:34.266Z,13.11
2019-04-23T23:52:27.983Z,13.12
2019-04-23T23:54:36.059Z,12.99
